sensor_id;sensor_type;location;lat;lon;timestamp;P1;durP1;ratioP1;P2;durP2;ratioP2
56130;SDS011;42000;44.774;20.506;2023-01-29T00:00:06;68.72;;;33.03;;
56130;SDS011;42000;44.774;20.506;2023-01-29T00:02:37;68.30;;;33.33;;
56130;SDS011;42000;44.774;20.506;2023-01-29T00:05:03;69.35;;;31.92;;
56130;SDS011;42000;44.774;20.506;2023-01-29T00:07:30;70.07;;;33.10;;
56130;SDS011;42000;44.774;20.506;2023-01-29T00:09:57;67.80;;;31.67;;
56130;SDS011;42000;44.774;20.506;2023-01-29T00:12:23;73.38;;;33.15;;
56130;SDS011;42000;44.774;20.506;2023-01-29T00:14:49;71.40;;;33.85;;
56130;SDS011;42000;44.774;20.506;2023-01-29T00:17:15;72.10;;;33.67;;
56130;SDS011;42000;44.774;20.506;2023-01-29T00:19:41;73.55;;;34.58;;
56130;SDS011;42000;44.774;20.506;2023-01-29T00:22:07;68.22;;;33.10;;
56130;SDS011;42000;44.774;20.506;2023-01-29T00:24:33;72.82;;;34.28;;
56130;SDS011;42000;44.774;20.506;2023-01-29T00:26:59;71.22;;;32.70;;
56130;SDS011;42000;44.774;20.506;2023-01-29T00:29:25;69.53;;;33.28;;
56130;SDS011;42000;44.774;20.506;2023-01-29T00:31:51;75.13;;;32.92;;
56130;SDS011;42000;44.774;20.506;2023-01-29T00:34:17;67.80;;;32.85;;
56130;SDS011;42000;44.774;20.506;2023-01-29T00:36:43;67.93;;;33.22;;
56130;SDS011;42000;44.774;20.506;2023-01-29T00:39:10;71.47;;;32.92;;
56130;SDS011;42000;44.774;20.506;2023-01-29T00:41:36;67.82;;;31.65;;
56130;SDS011;42000;44.774;20.506;2023-01-29T00:44:21;68.10;;;31.70;;
56130;SDS011;42000;44.774;20.506;2023-01-29T00:47:06;71.60;;;33.05;;
56130;SDS011;42000;44.774;20.506;2023-01-29T00:49:52;68.18;;;31.17;;
56130;SDS011;42000;44.774;20.506;2023-01-29T00:52:18;75.07;;;34.17;;
56130;SDS011;42000;44.774;20.506;2023-01-29T00:57:16;67.75;;;32.08;;
56130;SDS011;42000;44.774;20.506;2023-01-29T00:59:42;66.75;;;31.83;;
56130;SDS011;42000;44.774;20.506;2023-01-29T01:02:08;70.18;;;31.77;;
56130;SDS011;42000;44.774;20.506;2023-01-29T01:04:53;73.45;;;33.50;;
56130;SDS011;42000;44.774;20.506;2023-01-29T01:07:19;69.40;;;32.80;;
56130;SDS011;42000;44.774;20.506;2023-01-29T01:09:45;69.25;;;33.38;;
56130;SDS011;42000;44.774;20.506;2023-01-29T01:12:30;69.50;;;33.20;;
56130;SDS011;42000;44.774;20.506;2023-01-29T01:14:56;68.80;;;32.22;;
56130;SDS011;42000;44.774;20.506;2023-01-29T01:17:23;66.70;;;32.00;;
56130;SDS011;42000;44.774;20.506;2023-01-29T01:19:49;71.40;;;32.40;;
56130;SDS011;42000;44.774;20.506;2023-01-29T01:22:15;70.70;;;31.55;;
56130;SDS011;42000;44.774;20.506;2023-01-29T01:24:41;72.25;;;32.13;;
56130;SDS011;42000;44.774;20.506;2023-01-29T01:27:07;71.65;;;32.60;;
56130;SDS011;42000;44.774;20.506;2023-01-29T01:29:33;70.60;;;32.80;;
56130;SDS011;42000;44.774;20.506;2023-01-29T01:31:59;70.32;;;33.75;;
56130;SDS011;42000;44.774;20.506;2023-01-29T01:34:26;74.20;;;33.92;;
56130;SDS011;42000;44.774;20.506;2023-01-29T01:36:52;69.35;;;32.40;;
56130;SDS011;42000;44.774;20.506;2023-01-29T01:39:20;74.15;;;34.00;;
56130;SDS011;42000;44.774;20.506;2023-01-29T01:41:46;68.97;;;32.00;;
56130;SDS011;42000;44.774;20.506;2023-01-29T01:46:56;67.53;;;32.25;;
56130;SDS011;42000;44.774;20.506;2023-01-29T01:49:24;69.05;;;31.42;;
56130;SDS011;42000;44.774;20.506;2023-01-29T01:51:50;70.20;;;33.92;;
56130;SDS011;42000;44.774;20.506;2023-01-29T01:54:18;70.32;;;33.25;;
56130;SDS011;42000;44.774;20.506;2023-01-29T01:56:47;70.50;;;32.90;;
56130;SDS011;42000;44.774;20.506;2023-01-29T01:59:15;68.75;;;31.67;;
56130;SDS011;42000;44.774;20.506;2023-01-29T02:01:42;69.28;;;32.60;;
56130;SDS011;42000;44.774;20.506;2023-01-29T02:04:21;73.93;;;33.65;;
56130;SDS011;42000;44.774;20.506;2023-01-29T02:07:07;67.53;;;32.20;;
56130;SDS011;42000;44.774;20.506;2023-01-29T02:09:53;72.47;;;32.38;;
56130;SDS011;42000;44.774;20.506;2023-01-29T02:12:21;72.35;;;33.17;;
56130;SDS011;42000;44.774;20.506;2023-01-29T02:14:47;73.05;;;33.90;;
56130;SDS011;42000;44.774;20.506;2023-01-29T02:17:15;70.03;;;32.33;;
56130;SDS011;42000;44.774;20.506;2023-01-29T02:30:32;74.22;;;34.28;;
56130;SDS011;42000;44.774;20.506;2023-01-29T02:33:04;71.65;;;33.30;;
56130;SDS011;42000;44.774;20.506;2023-01-29T02:40:42;73.68;;;33.92;;
56130;SDS011;42000;44.774;20.506;2023-01-29T02:43:17;74.60;;;34.47;;
56130;SDS011;42000;44.774;20.506;2023-01-29T02:46:21;77.78;;;36.22;;
56130;SDS011;42000;44.774;20.506;2023-01-29T02:48:39;73.28;;;34.08;;
56130;SDS011;42000;44.774;20.506;2023-01-29T02:51:13;67.35;;;33.42;;
56130;SDS011;42000;44.774;20.506;2023-01-29T02:53:45;74.07;;;34.80;;
56130;SDS011;42000;44.774;20.506;2023-01-29T02:56:16;72.20;;;34.95;;
56130;SDS011;42000;44.774;20.506;2023-01-29T02:58:44;71.72;;;33.33;;
56130;SDS011;42000;44.774;20.506;2023-01-29T03:01:17;70.43;;;33.88;;
56130;SDS011;42000;44.774;20.506;2023-01-29T03:03:46;67.13;;;32.80;;
56130;SDS011;42000;44.774;20.506;2023-01-29T03:06:21;69.85;;;32.90;;
56130;SDS011;42000;44.774;20.506;2023-01-29T03:08:54;67.80;;;34.08;;
56130;SDS011;42000;44.774;20.506;2023-01-29T03:11:21;52.58;;;24.17;;
56130;SDS011;42000;44.774;20.506;2023-01-29T03:14:05;65.88;;;32.08;;
56130;SDS011;42000;44.774;20.506;2023-01-29T03:19:04;69.03;;;31.52;;
56130;SDS011;42000;44.774;20.506;2023-01-29T03:21:31;65.95;;;31.95;;
56130;SDS011;42000;44.774;20.506;2023-01-29T03:24:19;68.43;;;32.97;;
56130;SDS011;42000;44.774;20.506;2023-01-29T03:27:06;68.63;;;31.88;;
56130;SDS011;42000;44.774;20.506;2023-01-29T03:29:53;64.68;;;31.73;;
56130;SDS011;42000;44.774;20.506;2023-01-29T03:32:39;67.47;;;31.52;;
56130;SDS011;42000;44.774;20.506;2023-01-29T03:35:06;62.10;;;31.40;;
56130;SDS011;42000;44.774;20.506;2023-01-29T03:37:38;62.78;;;31.55;;
56130;SDS011;42000;44.774;20.506;2023-01-29T03:40:06;66.45;;;32.38;;
56130;SDS011;42000;44.774;20.506;2023-01-29T03:56:13;66.60;;;31.75;;
56130;SDS011;42000;44.774;20.506;2023-01-29T03:58:17;64.50;;;30.50;;
56130;SDS011;42000;44.774;20.506;2023-01-29T04:00:48;60.58;;;29.95;;
56130;SDS011;42000;44.774;20.506;2023-01-29T04:03:20;70.85;;;33.20;;
56130;SDS011;42000;44.774;20.506;2023-01-29T04:08:19;69.05;;;31.10;;
56130;SDS011;42000;44.774;20.506;2023-01-29T04:10:47;66.45;;;32.42;;
56130;SDS011;42000;44.774;20.506;2023-01-29T04:13:14;63.97;;;32.45;;
56130;SDS011;42000;44.774;20.506;2023-01-29T04:15:48;66.32;;;31.98;;
56130;SDS011;42000;44.774;20.506;2023-01-29T04:18:15;66.90;;;32.03;;
56130;SDS011;42000;44.774;20.506;2023-01-29T04:20:41;68.85;;;32.85;;
56130;SDS011;42000;44.774;20.506;2023-01-29T04:23:17;71.43;;;33.65;;
56130;SDS011;42000;44.774;20.506;2023-01-29T04:25:45;68.70;;;33.55;;
56130;SDS011;42000;44.774;20.506;2023-01-29T04:28:15;64.40;;;31.58;;
56130;SDS011;42000;44.774;20.506;2023-01-29T04:30:55;68.07;;;33.40;;
56130;SDS011;42000;44.774;20.506;2023-01-29T04:33:28;61.28;;;30.10;;
56130;SDS011;42000;44.774;20.506;2023-01-29T04:41:21;67.22;;;31.95;;
56130;SDS011;42000;44.774;20.506;2023-01-29T04:46:18;64.05;;;31.67;;
56130;SDS011;42000;44.774;20.506;2023-01-29T04:48:56;64.65;;;31.27;;
56130;SDS011;42000;44.774;20.506;2023-01-29T04:54:19;64.75;;;31.60;;
56130;SDS011;42000;44.774;20.506;2023-01-29T04:59:15;65.57;;;31.40;;
56130;SDS011;42000;44.774;20.506;2023-01-29T05:01:44;61.00;;;30.75;;
56130;SDS011;42000;44.774;20.506;2023-01-29T05:04:12;66.28;;;31.52;;
56130;SDS011;42000;44.774;20.506;2023-01-29T05:06:39;62.90;;;30.48;;
56130;SDS011;42000;44.774;20.506;2023-01-29T05:09:05;68.35;;;31.67;;
56130;SDS011;42000;44.774;20.506;2023-01-29T05:11:32;67.13;;;31.38;;
56130;SDS011;42000;44.774;20.506;2023-01-29T05:14:01;69.68;;;31.88;;
56130;SDS011;42000;44.774;20.506;2023-01-29T05:16:29;68.82;;;33.05;;
56130;SDS011;42000;44.774;20.506;2023-01-29T05:19:06;68.45;;;31.15;;
56130;SDS011;42000;44.774;20.506;2023-01-29T05:21:34;66.82;;;32.00;;
56130;SDS011;42000;44.774;20.506;2023-01-29T05:24:11;74.93;;;34.20;;
56130;SDS011;42000;44.774;20.506;2023-01-29T05:26:37;72.95;;;32.75;;
56130;SDS011;42000;44.774;20.506;2023-01-29T05:29:22;64.57;;;32.20;;
56130;SDS011;42000;44.774;20.506;2023-01-29T05:31:48;66.68;;;31.20;;
56130;SDS011;42000;44.774;20.506;2023-01-29T05:34:14;72.68;;;33.80;;
56130;SDS011;42000;44.774;20.506;2023-01-29T05:36:40;62.65;;;27.95;;
56130;SDS011;42000;44.774;20.506;2023-01-29T05:39:06;64.13;;;31.17;;
56130;SDS011;42000;44.774;20.506;2023-01-29T05:41:32;67.15;;;33.00;;
56130;SDS011;42000;44.774;20.506;2023-01-29T05:43:58;67.90;;;32.58;;
56130;SDS011;42000;44.774;20.506;2023-01-29T05:46:24;68.80;;;31.13;;
56130;SDS011;42000;44.774;20.506;2023-01-29T05:48:53;74.45;;;33.83;;
56130;SDS011;42000;44.774;20.506;2023-01-29T05:51:19;68.45;;;31.98;;
56130;SDS011;42000;44.774;20.506;2023-01-29T05:53:45;70.78;;;31.20;;
56130;SDS011;42000;44.774;20.506;2023-01-29T05:56:11;67.18;;;30.83;;
56130;SDS011;42000;44.774;20.506;2023-01-29T05:58:37;70.85;;;32.40;;
56130;SDS011;42000;44.774;20.506;2023-01-29T06:01:07;66.47;;;30.88;;
56130;SDS011;42000;44.774;20.506;2023-01-29T06:03:33;72.78;;;33.75;;
56130;SDS011;42000;44.774;20.506;2023-01-29T06:06:00;68.78;;;31.00;;
56130;SDS011;42000;44.774;20.506;2023-01-29T06:08:26;73.10;;;33.13;;
56130;SDS011;42000;44.774;20.506;2023-01-29T06:10:52;64.95;;;30.35;;
56130;SDS011;42000;44.774;20.506;2023-01-29T06:13:18;70.65;;;32.60;;
56130;SDS011;42000;44.774;20.506;2023-01-29T06:15:44;65.68;;;30.05;;
56130;SDS011;42000;44.774;20.506;2023-01-29T06:18:10;66.15;;;30.85;;
56130;SDS011;42000;44.774;20.506;2023-01-29T06:20:36;64.72;;;30.40;;
56130;SDS011;42000;44.774;20.506;2023-01-29T06:23:02;66.93;;;29.55;;
56130;SDS011;42000;44.774;20.506;2023-01-29T06:25:28;61.65;;;30.13;;
56130;SDS011;42000;44.774;20.506;2023-01-29T06:27:54;66.35;;;30.63;;
56130;SDS011;42000;44.774;20.506;2023-01-29T06:30:20;62.35;;;28.17;;
56130;SDS011;42000;44.774;20.506;2023-01-29T06:32:46;58.55;;;29.05;;
56130;SDS011;42000;44.774;20.506;2023-01-29T06:35:12;69.32;;;33.88;;
56130;SDS011;42000;44.774;20.506;2023-01-29T06:37:38;60.20;;;29.60;;
56130;SDS011;42000;44.774;20.506;2023-01-29T06:40:05;59.50;;;28.27;;
56130;SDS011;42000;44.774;20.506;2023-01-29T06:42:33;62.88;;;29.65;;
56130;SDS011;42000;44.774;20.506;2023-01-29T06:44:59;64.45;;;30.23;;
56130;SDS011;42000;44.774;20.506;2023-01-29T06:47:25;61.50;;;30.08;;
56130;SDS011;42000;44.774;20.506;2023-01-29T06:49:51;63.47;;;29.67;;
56130;SDS011;42000;44.774;20.506;2023-01-29T06:52:17;62.78;;;28.92;;
56130;SDS011;42000;44.774;20.506;2023-01-29T06:54:44;61.55;;;29.67;;
56130;SDS011;42000;44.774;20.506;2023-01-29T06:57:10;62.08;;;30.13;;
56130;SDS011;42000;44.774;20.506;2023-01-29T06:59:36;60.13;;;29.85;;
56130;SDS011;42000;44.774;20.506;2023-01-29T07:02:02;61.75;;;29.77;;
56130;SDS011;42000;44.774;20.506;2023-01-29T07:04:28;61.70;;;29.95;;
56130;SDS011;42000;44.774;20.506;2023-01-29T07:06:54;61.13;;;28.48;;
56130;SDS011;42000;44.774;20.506;2023-01-29T07:09:20;60.33;;;29.33;;
56130;SDS011;42000;44.774;20.506;2023-01-29T07:11:46;62.10;;;30.08;;
56130;SDS011;42000;44.774;20.506;2023-01-29T07:14:12;64.35;;;30.15;;
56130;SDS011;42000;44.774;20.506;2023-01-29T07:16:38;62.47;;;29.45;;
56130;SDS011;42000;44.774;20.506;2023-01-29T07:19:04;60.10;;;28.90;;
56130;SDS011;42000;44.774;20.506;2023-01-29T07:21:30;66.65;;;30.88;;
56130;SDS011;42000;44.774;20.506;2023-01-29T07:23:56;66.13;;;30.60;;
56130;SDS011;42000;44.774;20.506;2023-01-29T07:26:22;64.07;;;31.65;;
56130;SDS011;42000;44.774;20.506;2023-01-29T07:28:48;66.97;;;30.08;;
56130;SDS011;42000;44.774;20.506;2023-01-29T07:31:14;61.72;;;30.05;;
56130;SDS011;42000;44.774;20.506;2023-01-29T07:33:44;68.40;;;32.45;;
56130;SDS011;42000;44.774;20.506;2023-01-29T07:36:10;65.82;;;30.75;;
56130;SDS011;42000;44.774;20.506;2023-01-29T07:38:36;69.30;;;32.72;;
56130;SDS011;42000;44.774;20.506;2023-01-29T07:41:02;67.97;;;32.08;;
56130;SDS011;42000;44.774;20.506;2023-01-29T07:43:29;65.80;;;30.70;;
56130;SDS011;42000;44.774;20.506;2023-01-29T07:45:55;68.57;;;30.92;;
56130;SDS011;42000;44.774;20.506;2023-01-29T07:48:21;70.85;;;33.65;;
56130;SDS011;42000;44.774;20.506;2023-01-29T07:50:54;72.55;;;33.92;;
56130;SDS011;42000;44.774;20.506;2023-01-29T07:53:20;73.82;;;33.13;;
56130;SDS011;42000;44.774;20.506;2023-01-29T07:55:46;72.03;;;31.65;;
56130;SDS011;42000;44.774;20.506;2023-01-29T07:58:13;66.70;;;31.65;;
56130;SDS011;42000;44.774;20.506;2023-01-29T08:00:39;76.60;;;33.28;;
56130;SDS011;42000;44.774;20.506;2023-01-29T08:03:08;69.63;;;31.33;;
56130;SDS011;42000;44.774;20.506;2023-01-29T08:05:34;66.68;;;29.92;;
56130;SDS011;42000;44.774;20.506;2023-01-29T08:08:01;61.08;;;28.20;;
56130;SDS011;42000;44.774;20.506;2023-01-29T08:10:27;59.60;;;28.60;;
56130;SDS011;42000;44.774;20.506;2023-01-29T08:12:56;62.45;;;28.20;;
56130;SDS011;42000;44.774;20.506;2023-01-29T08:15:22;63.83;;;28.05;;
56130;SDS011;42000;44.774;20.506;2023-01-29T08:17:49;62.65;;;28.48;;
56130;SDS011;42000;44.774;20.506;2023-01-29T08:20:15;55.33;;;26.10;;
56130;SDS011;42000;44.774;20.506;2023-01-29T08:22:41;59.65;;;27.63;;
56130;SDS011;42000;44.774;20.506;2023-01-29T08:25:07;57.00;;;26.38;;
56130;SDS011;42000;44.774;20.506;2023-01-29T08:27:33;50.03;;;24.52;;
56130;SDS011;42000;44.774;20.506;2023-01-29T08:29:59;56.05;;;24.45;;
56130;SDS011;42000;44.774;20.506;2023-01-29T08:32:25;49.72;;;24.00;;
56130;SDS011;42000;44.774;20.506;2023-01-29T08:34:52;51.85;;;24.52;;
56130;SDS011;42000;44.774;20.506;2023-01-29T08:37:18;50.95;;;23.85;;
56130;SDS011;42000;44.774;20.506;2023-01-29T08:39:44;50.88;;;23.10;;
56130;SDS011;42000;44.774;20.506;2023-01-29T08:42:10;54.08;;;26.17;;
56130;SDS011;42000;44.774;20.506;2023-01-29T08:44:36;51.88;;;23.27;;
56130;SDS011;42000;44.774;20.506;2023-01-29T08:47:02;53.88;;;25.23;;
56130;SDS011;42000;44.774;20.506;2023-01-29T08:49:28;54.45;;;24.23;;
56130;SDS011;42000;44.774;20.506;2023-01-29T08:51:54;37.78;;;14.07;;
56130;SDS011;42000;44.774;20.506;2023-01-29T08:54:21;42.92;;;20.90;;
56130;SDS011;42000;44.774;20.506;2023-01-29T08:56:47;48.08;;;23.02;;
56130;SDS011;42000;44.774;20.506;2023-01-29T08:59:13;51.72;;;23.73;;
56130;SDS011;42000;44.774;20.506;2023-01-29T09:01:40;53.90;;;24.85;;
56130;SDS011;42000;44.774;20.506;2023-01-29T09:04:06;59.33;;;27.20;;
56130;SDS011;42000;44.774;20.506;2023-01-29T09:06:32;59.17;;;26.88;;
56130;SDS011;42000;44.774;20.506;2023-01-29T09:08:58;60.42;;;26.45;;
56130;SDS011;42000;44.774;20.506;2023-01-29T09:11:24;56.90;;;26.67;;
56130;SDS011;42000;44.774;20.506;2023-01-29T09:13:50;57.00;;;26.45;;
56130;SDS011;42000;44.774;20.506;2023-01-29T09:16:16;57.80;;;26.77;;
56130;SDS011;42000;44.774;20.506;2023-01-29T09:18:42;54.63;;;26.65;;
56130;SDS011;42000;44.774;20.506;2023-01-29T09:21:08;62.65;;;28.58;;
56130;SDS011;42000;44.774;20.506;2023-01-29T09:23:34;52.60;;;25.50;;
56130;SDS011;42000;44.774;20.506;2023-01-29T09:26:00;52.42;;;25.60;;
56130;SDS011;42000;44.774;20.506;2023-01-29T09:28:27;60.33;;;27.83;;
56130;SDS011;42000;44.774;20.506;2023-01-29T09:30:53;58.38;;;26.88;;
56130;SDS011;42000;44.774;20.506;2023-01-29T09:33:19;59.20;;;28.13;;
56130;SDS011;42000;44.774;20.506;2023-01-29T09:35:48;56.25;;;27.10;;
56130;SDS011;42000;44.774;20.506;2023-01-29T09:38:15;56.50;;;26.65;;
56130;SDS011;42000;44.774;20.506;2023-01-29T09:43:17;45.25;;;22.85;;
56130;SDS011;42000;44.774;20.506;2023-01-29T09:45:49;44.92;;;21.90;;
56130;SDS011;42000;44.774;20.506;2023-01-29T09:48:16;50.85;;;24.65;;
56130;SDS011;42000;44.774;20.506;2023-01-29T09:50:43;50.97;;;24.95;;
56130;SDS011;42000;44.774;20.506;2023-01-29T09:55:55;41.35;;;21.52;;
56130;SDS011;42000;44.774;20.506;2023-01-29T09:58:27;48.20;;;24.05;;
56130;SDS011;42000;44.774;20.506;2023-01-29T10:03:48;55.58;;;26.48;;
56130;SDS011;42000;44.774;20.506;2023-01-29T10:22:40;72.45;;;28.65;;
56130;SDS011;42000;44.774;20.506;2023-01-29T10:25:12;68.93;;;28.38;;
56130;SDS011;42000;44.774;20.506;2023-01-29T10:27:39;67.43;;;28.75;;
56130;SDS011;42000;44.774;20.506;2023-01-29T10:30:06;58.35;;;27.13;;
56130;SDS011;42000;44.774;20.506;2023-01-29T10:32:35;59.58;;;25.85;;
56130;SDS011;42000;44.774;20.506;2023-01-29T10:40:00;54.63;;;26.40;;
56130;SDS011;42000;44.774;20.506;2023-01-29T10:42:30;56.70;;;27.08;;
56130;SDS011;42000;44.774;20.506;2023-01-29T11:00:50;53.80;;;26.73;;
56130;SDS011;42000;44.774;20.506;2023-01-29T11:03:18;54.22;;;26.40;;
56130;SDS011;42000;44.774;20.506;2023-01-29T11:08:33;50.10;;;24.88;;
56130;SDS011;42000;44.774;20.506;2023-01-29T11:11:08;59.50;;;28.30;;
56130;SDS011;42000;44.774;20.506;2023-01-29T11:13:37;54.00;;;27.23;;
56130;SDS011;42000;44.774;20.506;2023-01-29T11:16:05;46.25;;;24.67;;
56130;SDS011;42000;44.774;20.506;2023-01-29T11:18:52;44.15;;;22.83;;
56130;SDS011;42000;44.774;20.506;2023-01-29T11:21:18;47.85;;;22.98;;
56130;SDS011;42000;44.774;20.506;2023-01-29T11:23:45;46.55;;;23.80;;
56130;SDS011;42000;44.774;20.506;2023-01-29T11:26:12;52.22;;;23.83;;
56130;SDS011;42000;44.774;20.506;2023-01-29T11:34:01;48.13;;;23.08;;
56130;SDS011;42000;44.774;20.506;2023-01-29T11:36:34;45.72;;;22.80;;
56130;SDS011;42000;44.774;20.506;2023-01-29T11:41:43;53.03;;;24.55;;
56130;SDS011;42000;44.774;20.506;2023-01-29T11:44:17;49.05;;;25.05;;
56130;SDS011;42000;44.774;20.506;2023-01-29T11:46:43;48.42;;;24.60;;
56130;SDS011;42000;44.774;20.506;2023-01-29T11:49:12;48.13;;;23.52;;
56130;SDS011;42000;44.774;20.506;2023-01-29T11:51:41;47.10;;;23.75;;
56130;SDS011;42000;44.774;20.506;2023-01-29T11:54:09;51.92;;;25.30;;
56130;SDS011;42000;44.774;20.506;2023-01-29T11:56:41;46.05;;;23.85;;
56130;SDS011;42000;44.774;20.506;2023-01-29T12:01:52;42.90;;;21.75;;
56130;SDS011;42000;44.774;20.506;2023-01-29T12:04:20;44.40;;;22.73;;
56130;SDS011;42000;44.774;20.506;2023-01-29T12:06:48;45.88;;;21.92;;
56130;SDS011;42000;44.774;20.506;2023-01-29T12:09:17;40.83;;;20.70;;
56130;SDS011;42000;44.774;20.506;2023-01-29T12:11:44;43.08;;;20.40;;
56130;SDS011;42000;44.774;20.506;2023-01-29T12:14:23;39.70;;;20.45;;
56130;SDS011;42000;44.774;20.506;2023-01-29T12:16:53;40.35;;;19.70;;
56130;SDS011;42000;44.774;20.506;2023-01-29T12:19:26;39.50;;;19.35;;
56130;SDS011;42000;44.774;20.506;2023-01-29T12:21:58;35.35;;;17.73;;
56130;SDS011;42000;44.774;20.506;2023-01-29T12:24:35;37.88;;;18.30;;
56130;SDS011;42000;44.774;20.506;2023-01-29T12:27:07;31.77;;;16.23;;
56130;SDS011;42000;44.774;20.506;2023-01-29T12:32:08;32.78;;;16.73;;
56130;SDS011;42000;44.774;20.506;2023-01-29T12:39:37;33.05;;;16.15;;
56130;SDS011;42000;44.774;20.506;2023-01-29T12:42:07;31.63;;;15.68;;
56130;SDS011;42000;44.774;20.506;2023-01-29T12:44:37;30.45;;;19.10;;
56130;SDS011;42000;44.774;20.506;2023-01-29T12:47:07;35.85;;;17.92;;
56130;SDS011;42000;44.774;20.506;2023-01-29T12:49:36;35.92;;;18.13;;
56130;SDS011;42000;44.774;20.506;2023-01-29T12:52:08;40.58;;;20.20;;
56130;SDS011;42000;44.774;20.506;2023-01-29T12:54:41;35.22;;;18.00;;
56130;SDS011;42000;44.774;20.506;2023-01-29T12:57:53;35.70;;;17.10;;
56130;SDS011;42000;44.774;20.506;2023-01-29T13:00:00;42.03;;;20.92;;
56130;SDS011;42000;44.774;20.506;2023-01-29T13:02:36;33.90;;;17.27;;
56130;SDS011;42000;44.774;20.506;2023-01-29T13:05:06;38.08;;;18.98;;
56130;SDS011;42000;44.774;20.506;2023-01-29T13:07:39;38.55;;;17.58;;
56130;SDS011;42000;44.774;20.506;2023-01-29T13:10:11;28.33;;;13.97;;
56130;SDS011;42000;44.774;20.506;2023-01-29T13:12:39;35.42;;;17.58;;
56130;SDS011;42000;44.774;20.506;2023-01-29T13:15:20;33.35;;;16.65;;
56130;SDS011;42000;44.774;20.506;2023-01-29T13:17:52;35.03;;;17.42;;
56130;SDS011;42000;44.774;20.506;2023-01-29T13:22:45;31.63;;;16.95;;
56130;SDS011;42000;44.774;20.506;2023-01-29T13:25:16;35.67;;;18.25;;
56130;SDS011;42000;44.774;20.506;2023-01-29T13:27:44;32.17;;;16.65;;
56130;SDS011;42000;44.774;20.506;2023-01-29T13:32:53;34.40;;;17.38;;
56130;SDS011;42000;44.774;20.506;2023-01-29T13:35:19;35.30;;;16.85;;
56130;SDS011;42000;44.774;20.506;2023-01-29T13:37:50;29.10;;;15.65;;
56130;SDS011;42000;44.774;20.506;2023-01-29T13:40:24;32.17;;;16.63;;
56130;SDS011;42000;44.774;20.506;2023-01-29T13:42:50;31.77;;;16.75;;
56130;SDS011;42000;44.774;20.506;2023-01-29T13:47:44;33.95;;;17.20;;
56130;SDS011;42000;44.774;20.506;2023-01-29T13:50:31;36.10;;;17.60;;
56130;SDS011;42000;44.774;20.506;2023-01-29T13:52:59;35.08;;;16.65;;
56130;SDS011;42000;44.774;20.506;2023-01-29T13:55:28;35.50;;;16.50;;
56130;SDS011;42000;44.774;20.506;2023-01-29T13:57:56;32.60;;;16.77;;
56130;SDS011;42000;44.774;20.506;2023-01-29T14:06:11;34.30;;;15.85;;
56130;SDS011;42000;44.774;20.506;2023-01-29T14:13:40;36.22;;;17.73;;
56130;SDS011;42000;44.774;20.506;2023-01-29T14:23:52;31.52;;;16.85;;
56130;SDS011;42000;44.774;20.506;2023-01-29T14:31:56;31.98;;;14.57;;
56130;SDS011;42000;44.774;20.506;2023-01-29T14:34:28;34.15;;;14.73;;
56130;SDS011;42000;44.774;20.506;2023-01-29T14:36:56;41.42;;;16.85;;
56130;SDS011;42000;44.774;20.506;2023-01-29T14:39:33;38.72;;;17.38;;
56130;SDS011;42000;44.774;20.506;2023-01-29T14:42:00;35.80;;;16.35;;
56130;SDS011;42000;44.774;20.506;2023-01-29T14:52:13;35.35;;;16.10;;
56130;SDS011;42000;44.774;20.506;2023-01-29T14:54:40;39.63;;;18.75;;
56130;SDS011;42000;44.774;20.506;2023-01-29T14:57:07;41.90;;;18.90;;
56130;SDS011;42000;44.774;20.506;2023-01-29T14:59:55;37.25;;;16.20;;
56130;SDS011;42000;44.774;20.506;2023-01-29T15:02:26;37.10;;;18.17;;
56130;SDS011;42000;44.774;20.506;2023-01-29T15:04:59;28.83;;;14.38;;
56130;SDS011;42000;44.774;20.506;2023-01-29T15:07:31;28.92;;;14.57;;
56130;SDS011;42000;44.774;20.506;2023-01-29T15:12:31;30.77;;;14.25;;
56130;SDS011;42000;44.774;20.506;2023-01-29T15:17:26;25.33;;;13.65;;
56130;SDS011;42000;44.774;20.506;2023-01-29T15:19:53;27.73;;;14.27;;
56130;SDS011;42000;44.774;20.506;2023-01-29T15:22:20;27.48;;;14.32;;
56130;SDS011;42000;44.774;20.506;2023-01-29T15:25:03;30.15;;;14.48;;
56130;SDS011;42000;44.774;20.506;2023-01-29T15:27:29;30.95;;;14.80;;
56130;SDS011;42000;44.774;20.506;2023-01-29T15:29:56;33.00;;;16.73;;
56130;SDS011;42000;44.774;20.506;2023-01-29T15:32:26;36.65;;;16.90;;
56130;SDS011;42000;44.774;20.506;2023-01-29T15:34:54;34.28;;;16.50;;
56130;SDS011;42000;44.774;20.506;2023-01-29T15:37:24;29.85;;;15.50;;
56130;SDS011;42000;44.774;20.506;2023-01-29T15:39:50;32.03;;;16.17;;
56130;SDS011;42000;44.774;20.506;2023-01-29T15:42:16;31.23;;;15.77;;
56130;SDS011;42000;44.774;20.506;2023-01-29T15:44:47;31.33;;;15.90;;
56130;SDS011;42000;44.774;20.506;2023-01-29T15:47:13;34.33;;;17.70;;
56130;SDS011;42000;44.774;20.506;2023-01-29T15:49:40;36.47;;;16.98;;
56130;SDS011;42000;44.774;20.506;2023-01-29T15:52:08;33.65;;;17.08;;
56130;SDS011;42000;44.774;20.506;2023-01-29T15:54:38;34.63;;;17.67;;
56130;SDS011;42000;44.774;20.506;2023-01-29T15:57:05;37.20;;;17.88;;
56130;SDS011;42000;44.774;20.506;2023-01-29T15:59:32;35.33;;;17.58;;
56130;SDS011;42000;44.774;20.506;2023-01-29T16:04:48;34.00;;;17.60;;
56130;SDS011;42000;44.774;20.506;2023-01-29T16:07:14;35.83;;;17.48;;
56130;SDS011;42000;44.774;20.506;2023-01-29T16:09:41;40.00;;;17.80;;
56130;SDS011;42000;44.774;20.506;2023-01-29T16:12:08;35.58;;;18.85;;
56130;SDS011;42000;44.774;20.506;2023-01-29T16:14:36;37.90;;;19.00;;
56130;SDS011;42000;44.774;20.506;2023-01-29T16:17:38;36.58;;;18.88;;
56130;SDS011;42000;44.774;20.506;2023-01-29T16:20:00;37.03;;;19.45;;
56130;SDS011;42000;44.774;20.506;2023-01-29T16:22:33;39.13;;;19.85;;
56130;SDS011;42000;44.774;20.506;2023-01-29T16:25:01;46.90;;;23.42;;
56130;SDS011;42000;44.774;20.506;2023-01-29T16:27:27;42.17;;;20.77;;
56130;SDS011;42000;44.774;20.506;2023-01-29T16:29:53;38.70;;;20.55;;
56130;SDS011;42000;44.774;20.506;2023-01-29T16:32:19;41.90;;;20.52;;
56130;SDS011;42000;44.774;20.506;2023-01-29T16:34:46;38.28;;;19.35;;
56130;SDS011;42000;44.774;20.506;2023-01-29T16:40:14;40.80;;;19.33;;
56130;SDS011;42000;44.774;20.506;2023-01-29T16:42:41;39.08;;;19.05;;
56130;SDS011;42000;44.774;20.506;2023-01-29T16:45:24;36.53;;;19.50;;
56130;SDS011;42000;44.774;20.506;2023-01-29T16:47:59;38.67;;;18.90;;
56130;SDS011;42000;44.774;20.506;2023-01-29T16:50:32;39.03;;;19.45;;
56130;SDS011;42000;44.774;20.506;2023-01-29T16:53:04;41.67;;;20.40;;
56130;SDS011;42000;44.774;20.506;2023-01-29T16:55:40;44.20;;;22.92;;
56130;SDS011;42000;44.774;20.506;2023-01-29T17:01:04;42.72;;;22.20;;
56130;SDS011;42000;44.774;20.506;2023-01-29T17:03:32;46.70;;;22.88;;
56130;SDS011;42000;44.774;20.506;2023-01-29T17:06:06;47.47;;;23.67;;
56130;SDS011;42000;44.774;20.506;2023-01-29T17:08:33;46.40;;;23.15;;
56130;SDS011;42000;44.774;20.506;2023-01-29T17:10:59;43.15;;;21.77;;